createdAt,value
2019-04-01T00:03:34.076Z,6.20
2019-04-01T00:08:40.443Z,6.10
2019-04-01T00:13:46.908Z,6.00
2019-04-01T00:19:02.997Z,6.10
2019-04-01T00:24:01.133Z,5.90
2019-04-01T00:29:07.436Z,5.90
2019-04-01T00:34:13.636Z,5.90
2019-04-01T00:39:19.990Z,5.80
2019-04-01T00:44:26.187Z,5.70
2019-04-01T00:49:32.468Z,5.70
2019-04-01T00:54:38.783Z,5.60
2019-04-01T00:59:45.045Z,5.50
2019-04-01T01:04:51.343Z,5.40
2019-04-01T01:09:59.482Z,5.20
2019-04-01T01:15:06.590Z,5.40
2019-04-01T01:20:13.237Z,5.20
2019-04-01T01:25:19.817Z,5.20
2019-04-01T01:30:26.029Z,5.10
2019-04-01T01:35:33.242Z,5.10
2019-04-01T01:40:39.612Z,5.10
2019-04-01T01:45:47.065Z,5.00
2019-04-01T01:50:54.732Z,5.00
2019-04-01T01:56:02.123Z,4.90
2019-04-01T02:01:09.438Z,4.90
2019-04-01T02:06:15.951Z,4.80
2019-04-01T02:11:22.498Z,4.80
2019-04-01T02:16:29.011Z,4.60
2019-04-01T02:21:36.264Z,4.70
2019-04-01T02:26:43.446Z,4.70
2019-04-01T02:31:49.701Z,4.60
2019-04-01T02:36:57.218Z,4.60
2019-04-01T02:42:04.046Z,4.50
2019-04-01T02:47:10.379Z,4.50
2019-04-01T02:52:16.730Z,4.40
2019-04-01T02:57:23.007Z,4.40
2019-04-01T03:02:29.383Z,4.40
2019-04-01T03:07:35.795Z,4.40
2019-04-01T03:12:42.009Z,4.30
2019-04-01T03:17:48.658Z,4.20
2019-04-01T03:22:55.053Z,4.10
2019-04-01T03:28:01.415Z,4.20
2019-04-01T03:33:07.683Z,4.30
2019-04-01T03:38:13.981Z,4.10
2019-04-01T03:43:20.311Z,4.20
2019-04-01T03:48:26.820Z,4.00
2019-04-01T03:53:33.521Z,4.10
2019-04-01T03:58:39.747Z,4.10
2019-04-01T04:03:46.089Z,4.00
2019-04-01T04:08:52.487Z,4.00
2019-04-01T04:14:00.446Z,3.90
2019-04-01T04:19:06.698Z,4.00
2019-04-01T04:24:13.111Z,4.00
2019-04-01T04:29:19.479Z,3.80
2019-04-01T04:34:25.938Z,3.80
2019-04-01T04:39:32.403Z,3.80
2019-04-01T04:44:38.860Z,3.80
2019-04-01T04:49:45.074Z,3.90
2019-04-01T04:54:51.476Z,3.60
2019-04-01T04:59:57.742Z,3.70
2019-04-01T05:05:05.469Z,3.60
2019-04-01T05:10:12.339Z,3.70
2019-04-01T05:15:20.299Z,3.80
2019-04-01T05:20:26.715Z,3.50
2019-04-01T05:25:52.184Z,3.60
2019-04-01T05:31:00.581Z,3.70
2019-04-01T05:36:07.407Z,3.70
2019-04-01T05:41:13.972Z,3.70
2019-04-01T05:46:20.230Z,3.60
2019-04-01T05:51:28.138Z,3.70
2019-04-01T05:56:34.483Z,3.60
2019-04-01T06:01:43.773Z,3.60
2019-04-01T06:06:50.083Z,3.50
2019-04-01T06:11:58.248Z,3.60
2019-04-01T06:17:05.750Z,3.70
2019-04-01T06:22:12.073Z,3.60
2019-04-01T06:27:18.717Z,3.70
2019-04-01T06:32:25.247Z,3.70
2019-04-01T06:37:33.327Z,3.90
2019-04-01T06:42:39.770Z,3.90
2019-04-01T06:47:46.196Z,4.00
2019-04-01T06:52:52.559Z,4.00
2019-04-01T06:57:59.083Z,4.20
2019-04-01T07:03:05.674Z,4.20
2019-04-01T07:08:12.164Z,4.40
2019-04-01T07:13:19.003Z,4.60
2019-04-01T07:18:25.308Z,4.80
2019-04-01T07:23:32.661Z,5.10
2019-04-01T07:28:39.206Z,5.40
2019-04-01T07:33:47.079Z,5.70
2019-04-01T07:38:53.430Z,6.10
2019-04-01T07:43:59.943Z,6.80
2019-04-01T07:49:06.644Z,7.20
2019-04-01T07:54:18.398Z,7.40
2019-04-01T07:59:24.337Z,7.10
2019-04-01T08:04:31.020Z,7.90
2019-04-01T08:09:37.405Z,8.30
2019-04-01T08:14:44.084Z,9.10
2019-04-01T08:19:50.665Z,9.10
2019-04-01T08:24:57.081Z,8.80
2019-04-01T08:30:06.772Z,10.00
2019-04-01T08:35:13.727Z,10.40
2019-04-01T08:40:20.366Z,10.50
2019-04-01T08:45:27.211Z,10.50
2019-04-01T08:50:33.594Z,10.70
2019-04-01T08:55:40.515Z,11.00
2019-04-01T09:00:46.865Z,12.30
2019-04-01T09:05:53.488Z,11.90
2019-04-01T09:11:00.116Z,11.90
2019-04-01T09:16:06.491Z,12.80
2019-04-01T09:21:13.498Z,13.10
2019-04-01T09:26:20.025Z,13.60
2019-04-01T09:31:26.418Z,13.40
2019-04-01T09:36:32.858Z,14.20
2019-04-01T09:41:39.417Z,14.30
2019-04-01T09:46:48.810Z,13.70
2019-04-01T09:51:54.227Z,13.70
2019-04-01T09:57:00.527Z,14.20
2019-04-01T10:02:06.911Z,14.90
2019-04-01T10:07:13.530Z,16.30
2019-04-01T10:12:20.032Z,15.10
2019-04-01T10:17:28.223Z,15.30
2019-04-01T10:22:34.571Z,15.10
2019-04-01T10:27:41.086Z,16.20
2019-04-01T10:32:47.537Z,16.80
2019-04-01T10:37:54.228Z,16.60
2019-04-01T10:43:00.761Z,17.20
2019-04-01T10:48:07.592Z,16.70
2019-04-01T10:53:14.187Z,16.60
2019-04-01T10:58:22.558Z,16.90
2019-04-01T11:03:29.849Z,17.50
2019-04-01T11:08:39.304Z,15.80
2019-04-01T11:13:48.594Z,16.50
2019-04-01T11:18:58.138Z,16.40
2019-04-01T11:24:03.427Z,16.60
2019-04-01T11:29:09.750Z,16.60
2019-04-01T11:34:16.211Z,16.50
2019-04-01T11:39:22.727Z,16.90
2019-04-01T11:44:29.199Z,16.50
2019-04-01T11:49:35.819Z,16.70
2019-04-01T11:54:42.561Z,16.40
2019-04-01T11:59:52.181Z,16.50
2019-04-01T12:04:59.736Z,16.60
2019-04-01T12:10:07.659Z,17.20
2019-04-01T12:15:14.515Z,17.20
2019-04-01T12:20:20.839Z,16.80
2019-04-01T12:25:27.168Z,17.00
2019-04-01T12:30:33.535Z,16.80
2019-04-01T12:35:42.947Z,17.10
2019-04-01T12:40:49.518Z,17.00
2019-04-01T12:45:56.262Z,17.40
2019-04-01T12:51:02.657Z,17.30
2019-04-01T12:56:09.130Z,17.20
2019-04-01T13:01:15.632Z,16.70
2019-04-01T13:06:23.174Z,16.90
2019-04-01T13:11:29.778Z,17.50
2019-04-01T13:16:36.196Z,17.20
2019-04-01T13:21:43.051Z,17.40
2019-04-01T13:26:51.134Z,17.20
2019-04-01T13:32:00.460Z,17.10
2019-04-01T13:37:05.867Z,17.40
2019-04-01T13:42:12.410Z,17.80
2019-04-01T13:47:21.923Z,17.60
2019-04-01T13:52:29.522Z,17.40
2019-04-01T13:57:37.033Z,17.60
2019-04-01T14:02:43.407Z,17.40
2019-04-01T14:07:49.783Z,17.70
2019-04-01T14:12:57.699Z,17.40
2019-04-01T14:18:03.987Z,17.40
2019-04-01T14:23:10.333Z,17.90
2019-04-01T14:28:16.985Z,17.80
2019-04-01T14:33:23.320Z,17.90
2019-04-01T14:38:29.671Z,17.60
2019-04-01T14:43:36.094Z,17.50
2019-04-01T14:48:43.047Z,18.00
2019-04-01T14:53:49.446Z,17.60
2019-04-01T14:58:55.877Z,17.60
2019-04-01T15:04:02.179Z,17.50
2019-04-01T15:09:09.185Z,17.70
2019-04-01T15:14:17.195Z,17.90
2019-04-01T15:19:24.049Z,17.90
2019-04-01T15:24:30.903Z,18.00
2019-04-01T15:29:37.251Z,17.90
2019-04-01T15:34:43.569Z,17.60
2019-04-01T15:39:50.460Z,17.60
2019-04-01T15:44:56.948Z,17.80
2019-04-01T15:50:03.331Z,17.70
2019-04-01T15:55:10.229Z,17.80
2019-04-01T16:00:19.425Z,17.50
2019-04-01T16:05:25.596Z,17.60
2019-04-01T16:10:32.074Z,17.40
2019-04-01T16:15:38.720Z,17.60
2019-04-01T16:20:45.233Z,17.40
2019-04-01T16:25:51.610Z,17.50
2019-04-01T16:30:58.108Z,17.00
2019-04-01T16:36:05.634Z,16.90
2019-04-01T16:41:12.204Z,17.00
2019-04-01T16:46:18.700Z,17.00
2019-04-01T16:51:25.382Z,16.70
2019-04-01T16:56:34.713Z,16.40
2019-04-01T17:01:41.681Z,16.20
2019-04-01T17:06:49.239Z,16.20
2019-04-01T17:11:56.421Z,16.20
2019-04-01T17:17:02.910Z,16.00
2019-04-01T17:22:11.400Z,16.00
2019-04-01T17:27:18.243Z,16.00
2019-04-01T17:32:24.582Z,15.90
2019-04-01T17:37:31.050Z,15.60
2019-04-01T17:42:39.216Z,15.60
2019-04-01T17:47:47.093Z,15.60
2019-04-01T17:52:53.951Z,15.50
2019-04-01T17:58:00.739Z,15.40
2019-04-01T18:03:26.319Z,15.30
2019-04-01T18:08:34.106Z,15.10
2019-04-01T18:13:41.025Z,15.00
2019-04-01T18:18:47.432Z,14.80
2019-04-01T18:23:54.100Z,14.60
2019-04-01T18:29:01.383Z,14.60
2019-04-01T18:34:07.822Z,14.50
2019-04-01T18:39:15.104Z,14.40
2019-04-01T18:44:21.571Z,14.20
2019-04-01T18:49:27.926Z,14.00
2019-04-01T18:54:34.638Z,13.90
2019-04-01T18:59:40.942Z,13.80
2019-04-01T19:04:47.234Z,13.70
2019-04-01T19:10:05.591Z,13.50
2019-04-01T19:15:02.898Z,13.50
2019-04-01T19:20:16.395Z,13.50
2019-04-01T19:25:23.422Z,13.30
2019-04-01T19:30:30.020Z,13.20
2019-04-01T19:35:36.493Z,13.10
2019-04-01T19:40:42.791Z,12.90
2019-04-01T19:45:50.674Z,12.80
2019-04-01T19:50:57.220Z,12.80
2019-04-01T19:56:03.529Z,12.70
2019-04-01T20:01:11.215Z,12.70
2019-04-01T20:06:19.040Z,12.70
2019-04-01T20:11:25.606Z,12.50
2019-04-01T20:16:32.026Z,12.20
2019-04-01T20:21:38.518Z,12.20
2019-04-01T20:26:44.921Z,12.10
2019-04-01T20:31:51.528Z,12.00
2019-04-01T20:36:58.056Z,11.80
2019-04-01T20:42:07.033Z,11.80
2019-04-01T20:47:12.631Z,11.90
2019-04-01T20:52:19.057Z,11.80
2019-04-01T20:57:25.692Z,11.80
2019-04-01T21:02:33.073Z,11.70
2019-04-01T21:07:39.746Z,11.60
2019-04-01T21:12:46.771Z,11.50
2019-04-01T21:17:54.302Z,11.40
2019-04-01T21:23:00.900Z,11.40
2019-04-01T21:28:07.317Z,11.30
2019-04-01T21:33:14.664Z,11.20
2019-04-01T21:38:21.050Z,11.10
2019-04-01T21:43:27.324Z,11.00
2019-04-01T21:48:33.815Z,11.00
2019-04-01T21:53:41.378Z,10.90
2019-04-01T21:58:49.002Z,10.80
2019-04-01T22:03:55.647Z,10.80
2019-04-01T22:09:02.076Z,10.60
2019-04-01T22:14:10.530Z,10.60
2019-04-01T22:19:16.859Z,10.50
2019-04-01T22:24:24.084Z,10.40
2019-04-01T22:29:31.620Z,10.30
2019-04-01T22:34:49.697Z,10.30
2019-04-01T22:39:56.275Z,10.20
2019-04-01T22:45:02.658Z,10.10
2019-04-01T22:50:10.254Z,10.10
2019-04-01T22:55:17.391Z,10.00
2019-04-01T23:00:24.025Z,10.00
2019-04-01T23:05:30.417Z,9.90
2019-04-01T23:10:37.463Z,10.00
2019-04-01T23:15:44.892Z,9.90
2019-04-01T23:20:51.155Z,9.90
2019-04-01T23:25:57.639Z,10.10
2019-04-01T23:31:03.987Z,9.90
2019-04-01T23:36:12.182Z,10.00
2019-04-01T23:41:19.000Z,10.00
2019-04-01T23:46:26.267Z,10.20
2019-04-01T23:51:33.516Z,10.10
2019-04-01T23:56:39.991Z,10.20
